createdAt,value
2023-03-30T00:02:23.875Z,3.28
2023-03-30T00:04:52.102Z,3.38
2023-03-30T00:07:20.041Z,3.27
2023-03-30T00:09:47.430Z,3.02
2023-03-30T00:12:14.755Z,3.05
2023-03-30T00:14:42.538Z,2.89
2023-03-30T00:17:10.142Z,2.64
2023-03-30T00:19:38.317Z,2.73
2023-03-30T00:22:06.528Z,2.85
2023-03-30T00:24:34.955Z,2.92
2023-03-30T00:27:02.951Z,3.10
2023-03-30T00:29:30.278Z,3.07
2023-03-30T00:31:57.469Z,3.02
2023-03-30T00:34:25.654Z,3.04
2023-03-30T00:36:52.954Z,2.70
2023-03-30T00:39:20.322Z,2.84
2023-03-30T00:41:47.786Z,2.79
2023-03-30T00:44:52.944Z,2.85
2023-03-30T00:47:21.720Z,2.51
2023-03-30T00:49:49.483Z,2.50
2023-03-30T00:52:16.800Z,2.29
2023-03-30T00:54:44.148Z,2.20
2023-03-30T00:57:12.796Z,2.23
2023-03-30T00:59:40.775Z,2.05
2023-03-30T01:02:08.149Z,1.43
2023-03-30T01:04:35.505Z,1.35
2023-03-30T01:07:04.813Z,1.59
2023-03-30T01:09:32.116Z,1.74
2023-03-30T01:11:59.553Z,1.65
2023-03-30T01:14:27.006Z,1.63
2023-03-30T01:16:58.323Z,1.48
2023-03-30T01:19:34.611Z,1.52
2023-03-30T01:22:33.805Z,1.60
2023-03-30T01:25:26.269Z,1.56
2023-03-30T01:28:11.610Z,1.40
2023-03-30T01:31:16.494Z,1.53
2023-03-30T01:34:13.750Z,1.53
2023-03-30T01:36:46.828Z,1.53
2023-03-30T01:39:40.020Z,1.53
2023-03-30T01:42:33.763Z,1.96
2023-03-30T01:45:09.948Z,1.82
2023-03-30T01:47:42.993Z,1.86
2023-03-30T01:50:19.464Z,1.73
2023-03-30T01:52:58.742Z,1.65
2023-03-30T01:55:31.749Z,1.93
2023-03-30T01:58:14.384Z,2.07
2023-03-30T02:00:44.976Z,2.19
2023-03-30T02:03:21.900Z,2.18
2023-03-30T02:05:53.622Z,2.10
2023-03-30T02:08:22.818Z,2.14
2023-03-30T02:10:53.546Z,1.91
2023-03-30T02:13:22.903Z,1.72
2023-03-30T02:15:57.242Z,1.59
2023-03-30T02:18:25.302Z,1.46
2023-03-30T02:20:53.432Z,1.45
2023-03-30T02:23:23.201Z,1.64
2023-03-30T02:25:50.572Z,1.57
2023-03-30T02:28:17.891Z,1.44
2023-03-30T02:30:47.146Z,1.43
2023-03-30T02:33:24.946Z,1.46
2023-03-30T02:35:55.122Z,1.76
2023-03-30T02:38:59.997Z,1.84
2023-03-30T02:42:05.980Z,1.68
2023-03-30T02:44:39.600Z,1.48
2023-03-30T02:47:12.827Z,1.32
2023-03-30T02:49:49.589Z,1.24
2023-03-30T02:52:23.290Z,1.42
2023-03-30T02:55:10.542Z,1.30
2023-03-30T02:58:05.171Z,1.22
2023-03-30T03:00:58.780Z,1.33
2023-03-30T03:03:37.272Z,1.57
2023-03-30T03:06:06.332Z,1.53
2023-03-30T03:08:36.810Z,1.38
2023-03-30T03:11:04.490Z,1.38
2023-03-30T03:13:32.090Z,1.55
2023-03-30T03:16:00.259Z,1.47
2023-03-30T03:18:29.042Z,1.56
2023-03-30T03:20:56.704Z,1.49
2023-03-30T03:23:24.647Z,1.45
2023-03-30T03:25:52.048Z,1.59
2023-03-30T03:28:19.622Z,1.53
2023-03-30T03:30:49.053Z,8.22
2023-03-30T03:33:16.475Z,8.15
2023-03-30T03:35:43.778Z,7.22
2023-03-30T03:38:12.003Z,4.36
2023-03-30T03:40:39.863Z,3.55
2023-03-30T03:43:08.227Z,3.50
2023-03-30T03:45:36.120Z,2.56
2023-03-30T03:48:09.160Z,1.34
2023-03-30T03:50:37.538Z,1.23
2023-03-30T03:53:05.495Z,1.33
2023-03-30T03:55:33.699Z,5.80
2023-03-30T03:58:02.912Z,7.23
2023-03-30T04:00:31.363Z,7.05
2023-03-30T04:02:59.617Z,3.93
2023-03-30T04:05:27.856Z,2.42
2023-03-30T04:07:56.021Z,1.99
2023-03-30T04:10:24.369Z,1.62
2023-03-30T04:12:55.573Z,1.09
2023-03-30T04:15:24.350Z,0.83
2023-03-30T04:17:52.112Z,0.71
2023-03-30T04:20:19.514Z,0.63
2023-03-30T04:22:47.328Z,0.22
2023-03-30T04:25:14.686Z,0.80
2023-03-30T04:27:42.451Z,0.97
2023-03-30T04:30:13.186Z,0.51
2023-03-30T04:32:40.612Z,0.46
2023-03-30T04:35:09.121Z,0.39
2023-03-30T04:37:36.874Z,-0.08
2023-03-30T04:40:05.656Z,0.43
2023-03-30T04:42:33.031Z,0.96
2023-03-30T04:45:00.857Z,1.35
2023-03-30T04:47:29.044Z,1.89
2023-03-30T04:49:56.428Z,2.60
2023-03-30T04:52:23.788Z,2.43
2023-03-30T04:54:53.962Z,2.55
2023-03-30T04:57:21.611Z,3.16
2023-03-30T04:59:53.784Z,4.02
2023-03-30T05:02:22.069Z,4.29
2023-03-30T05:04:52.496Z,4.20
2023-03-30T05:07:19.804Z,4.48
2023-03-30T05:09:47.318Z,4.59
2023-03-30T05:12:15.873Z,4.95
2023-03-30T05:14:43.268Z,4.70
2023-03-30T05:17:11.276Z,5.06
2023-03-30T05:19:38.706Z,4.81
2023-03-30T05:22:06.429Z,4.93
2023-03-30T05:24:34.369Z,5.20
2023-03-30T05:27:01.786Z,5.59
2023-03-30T05:29:29.117Z,6.52
2023-03-30T05:31:56.442Z,6.90
2023-03-30T05:34:23.952Z,7.28
2023-03-30T05:36:51.341Z,7.67
2023-03-30T05:39:18.712Z,7.57
2023-03-30T05:41:45.971Z,7.59
2023-03-30T05:44:13.324Z,7.70
2023-03-30T05:46:40.755Z,7.83
2023-03-30T05:49:08.252Z,8.11
2023-03-30T05:51:35.606Z,8.45
2023-03-30T05:54:03.306Z,9.14
2023-03-30T05:56:30.639Z,9.20
2023-03-30T05:58:58.089Z,9.88
2023-03-30T06:01:25.455Z,10.33
2023-03-30T06:03:53.332Z,10.83
2023-03-30T06:06:21.016Z,10.48
2023-03-30T06:08:48.347Z,11.33
2023-03-30T06:11:16.050Z,11.52
2023-03-30T06:13:43.442Z,11.37
2023-03-30T06:16:11.028Z,11.25
2023-03-30T06:18:38.751Z,11.17
2023-03-30T06:21:06.754Z,10.79
2023-03-30T06:23:36.440Z,11.09
2023-03-30T06:26:04.804Z,11.48
2023-03-30T06:28:32.160Z,10.80
2023-03-30T06:31:00.054Z,11.59
2023-03-30T06:33:27.661Z,12.81
2023-03-30T06:35:55.175Z,12.42
2023-03-30T06:38:23.381Z,12.06
2023-03-30T06:40:50.704Z,12.54
2023-03-30T06:43:24.377Z,12.90
2023-03-30T06:45:56.972Z,13.04
2023-03-30T06:48:24.883Z,12.48
2023-03-30T06:50:53.386Z,12.21
2023-03-30T06:53:22.752Z,12.37
2023-03-30T06:55:55.688Z,12.03
2023-03-30T06:58:24.287Z,11.95
2023-03-30T07:00:52.170Z,11.80
2023-03-30T07:03:20.551Z,12.27
2023-03-30T07:05:48.718Z,11.92
2023-03-30T07:08:16.686Z,12.08
2023-03-30T07:10:44.161Z,11.54
2023-03-30T07:13:11.658Z,11.81
2023-03-30T07:15:39.082Z,11.78
2023-03-30T07:18:06.665Z,12.14
2023-03-30T07:20:34.103Z,11.97
2023-03-30T07:23:02.522Z,11.60
2023-03-30T07:25:30.377Z,11.42
2023-03-30T07:27:57.753Z,11.86
2023-03-30T07:30:25.296Z,12.13
2023-03-30T07:32:53.847Z,11.72
2023-03-30T07:35:22.600Z,12.31
2023-03-30T07:37:51.047Z,12.18
2023-03-30T07:40:19.687Z,12.03
2023-03-30T07:42:47.856Z,12.55
2023-03-30T07:45:16.689Z,12.37
2023-03-30T07:47:45.094Z,11.28
2023-03-30T07:50:12.530Z,11.58
2023-03-30T07:52:40.191Z,12.06
2023-03-30T07:55:08.023Z,11.37
2023-03-30T07:57:35.520Z,12.04
2023-03-30T08:00:04.475Z,12.05
2023-03-30T08:02:33.209Z,12.53
2023-03-30T08:05:00.972Z,12.81
2023-03-30T08:07:29.538Z,11.98
2023-03-30T08:09:57.396Z,12.75
2023-03-30T08:12:28.099Z,13.01
2023-03-30T08:14:55.436Z,12.54
2023-03-30T08:17:22.983Z,12.63
2023-03-30T08:19:50.393Z,12.92
2023-03-30T08:22:17.871Z,11.92
2023-03-30T08:24:46.338Z,13.60
2023-03-30T08:27:14.810Z,14.82
2023-03-30T08:29:42.235Z,15.48
2023-03-30T08:32:10.058Z,16.96
2023-03-30T08:34:38.601Z,16.94
2023-03-30T08:37:05.985Z,16.88
2023-03-30T08:39:33.389Z,17.07
2023-03-30T08:42:23.624Z,16.73
2023-03-30T08:44:55.753Z,16.21
2023-03-30T08:47:33.487Z,14.86
2023-03-30T08:50:13.607Z,14.98
2023-03-30T08:52:42.470Z,14.84
2023-03-30T08:55:22.143Z,14.34
2023-03-30T08:58:12.644Z,14.63
2023-03-30T09:00:54.321Z,13.96
2023-03-30T09:03:42.683Z,13.91
2023-03-30T09:06:22.033Z,13.54
2023-03-30T09:08:50.889Z,14.87
2023-03-30T09:11:30.715Z,15.39
2023-03-30T09:14:00.994Z,16.33
2023-03-30T09:17:00.932Z,17.01
2023-03-30T09:19:35.533Z,16.72
2023-03-30T09:22:06.453Z,16.66
2023-03-30T09:24:34.657Z,16.45
2023-03-30T09:27:10.328Z,17.12
2023-03-30T09:29:46.683Z,16.96
2023-03-30T09:32:29.947Z,15.44
2023-03-30T09:35:04.791Z,15.08
2023-03-30T09:37:32.348Z,14.93
2023-03-30T09:40:10.929Z,15.40
2023-03-30T09:42:50.930Z,15.11
2023-03-30T09:45:25.455Z,15.09
2023-03-30T09:47:53.008Z,15.37
2023-03-30T09:50:26.971Z,15.48
2023-03-30T09:53:02.762Z,15.25
2023-03-30T09:55:36.973Z,14.86
2023-03-30T09:58:28.009Z,15.30
2023-03-30T10:01:12.972Z,15.45
2023-03-30T10:03:42.196Z,15.40
2023-03-30T10:06:27.933Z,14.68
2023-03-30T10:08:56.553Z,14.62
2023-03-30T10:11:57.173Z,15.33
2023-03-30T10:14:37.257Z,15.13
2023-03-30T10:17:06.370Z,15.33
2023-03-30T10:19:37.999Z,15.22
2023-03-30T10:22:16.411Z,14.97
2023-03-30T10:24:56.137Z,14.95
2023-03-30T10:27:37.357Z,15.22
2023-03-30T10:30:17.552Z,15.11
2023-03-30T10:32:48.261Z,14.60
2023-03-30T10:35:22.019Z,14.57
2023-03-30T10:37:55.167Z,14.15
2023-03-30T10:40:39.572Z,14.23
2023-03-30T10:43:14.600Z,14.46
2023-03-30T10:45:50.629Z,14.60
2023-03-30T10:48:45.920Z,13.85
2023-03-30T10:51:35.506Z,14.37
2023-03-30T10:54:18.323Z,14.03
2023-03-30T10:56:53.674Z,14.96
2023-03-30T10:59:29.724Z,15.06
2023-03-30T11:02:16.830Z,14.99
2023-03-30T11:04:59.794Z,14.46
2023-03-30T11:07:40.506Z,15.06
2023-03-30T11:10:26.925Z,14.92
2023-03-30T11:12:59.204Z,15.14
2023-03-30T11:16:10.022Z,14.32
2023-03-30T11:18:42.015Z,14.77
2023-03-30T11:21:20.565Z,15.49
2023-03-30T11:23:59.398Z,15.27
2023-03-30T11:26:42.072Z,15.13
2023-03-30T11:29:19.203Z,14.57
2023-03-30T11:32:02.831Z,15.34
2023-03-30T11:34:53.322Z,15.26
2023-03-30T11:37:42.033Z,14.87
2023-03-30T11:40:24.796Z,15.48
2023-03-30T11:42:55.637Z,15.37
2023-03-30T11:45:47.768Z,15.29
2023-03-30T11:48:21.112Z,15.13
2023-03-30T11:50:54.811Z,14.75
2023-03-30T11:54:09.696Z,15.19
2023-03-30T11:56:46.930Z,15.27
2023-03-30T11:59:32.102Z,15.71
2023-03-30T12:02:11.472Z,15.38
2023-03-30T12:04:50.567Z,15.12
2023-03-30T12:07:40.419Z,14.85
2023-03-30T12:10:28.242Z,13.98
2023-03-30T12:12:55.789Z,14.47
2023-03-30T12:15:26.084Z,14.67
2023-03-30T12:18:15.293Z,14.46
2023-03-30T12:21:13.812Z,14.67
2023-03-30T12:23:49.613Z,14.77
2023-03-30T12:26:28.205Z,14.78
2023-03-30T12:29:40.527Z,14.30
2023-03-30T12:32:05.610Z,14.82
2023-03-30T12:34:40.611Z,14.92
2023-03-30T12:37:35.339Z,14.72
2023-03-30T12:40:06.815Z,14.41
2023-03-30T12:42:37.982Z,14.79
2023-03-30T12:45:31.194Z,14.81
2023-03-30T12:48:23.135Z,14.71
2023-03-30T12:51:08.997Z,15.02
2023-03-30T12:53:48.185Z,15.09
2023-03-30T12:56:38.543Z,14.52
2023-03-30T12:59:20.078Z,14.42
2023-03-30T13:02:09.074Z,14.59
2023-03-30T13:04:49.268Z,14.55
2023-03-30T13:07:32.583Z,13.84
2023-03-30T13:10:05.681Z,14.47
2023-03-30T13:12:42.781Z,14.65
2023-03-30T13:15:16.509Z,14.95
2023-03-30T13:17:56.101Z,14.90
2023-03-30T13:20:56.134Z,14.90
2023-03-30T13:23:25.546Z,14.84
2023-03-30T13:26:02.449Z,14.97
2023-03-30T13:28:39.104Z,14.98
2023-03-30T13:31:35.441Z,14.82
2023-03-30T13:34:46.700Z,15.30
2023-03-30T13:37:36.493Z,15.32
2023-03-30T13:40:31.200Z,15.26
2023-03-30T13:43:44.571Z,14.81
2023-03-30T13:46:54.583Z,14.92
2023-03-30T13:49:37.034Z,15.09
2023-03-30T13:52:16.468Z,15.06
2023-03-30T13:54:44.565Z,15.12
2023-03-30T13:57:17.605Z,15.17
2023-03-30T13:59:52.684Z,15.45
2023-03-30T14:02:23.843Z,15.35
2023-03-30T14:04:53.195Z,15.48
2023-03-30T14:07:22.743Z,15.18
2023-03-30T14:10:12.173Z,15.23
2023-03-30T14:12:41.541Z,14.89
2023-03-30T14:15:23.456Z,15.04
2023-03-30T14:17:55.159Z,15.24
2023-03-30T14:20:55.042Z,14.70
2023-03-30T14:23:48.584Z,14.91
2023-03-30T14:26:25.412Z,14.70
2023-03-30T14:29:04.410Z,14.54
2023-03-30T14:31:40.887Z,14.59
2023-03-30T14:34:28.247Z,14.57
2023-03-30T14:36:59.358Z,14.59
2023-03-30T14:39:28.011Z,14.70
2023-03-30T14:41:55.740Z,14.74
2023-03-30T14:44:24.090Z,14.57
2023-03-30T14:46:53.778Z,14.79
2023-03-30T14:49:26.225Z,14.72
2023-03-30T14:52:01.413Z,14.65
2023-03-30T14:54:30.442Z,14.91
2023-03-30T14:57:00.741Z,14.60
2023-03-30T14:59:30.897Z,15.03
2023-03-30T15:01:59.144Z,14.82
2023-03-30T15:04:35.443Z,14.78
2023-03-30T15:07:06.498Z,14.86
2023-03-30T15:09:56.646Z,14.57
2023-03-30T15:12:39.195Z,14.63
2023-03-30T15:15:09.020Z,14.63
2023-03-30T15:17:38.955Z,14.51
2023-03-30T15:20:08.198Z,14.56
2023-03-30T15:22:44.615Z,14.62
2023-03-30T15:25:16.790Z,14.30
2023-03-30T15:27:52.762Z,14.00
2023-03-30T15:30:39.068Z,14.72
2023-03-30T15:33:06.998Z,15.58
2023-03-30T15:35:37.154Z,16.15
2023-03-30T15:38:17.077Z,16.52
2023-03-30T15:40:46.993Z,16.31
2023-03-30T15:43:28.832Z,16.34
2023-03-30T15:46:06.083Z,15.93
2023-03-30T15:48:49.077Z,15.85
2023-03-30T15:51:42.930Z,16.20
2023-03-30T15:54:13.779Z,15.91
2023-03-30T15:57:11.551Z,16.37
2023-03-30T15:59:53.844Z,16.36
2023-03-30T16:02:23.022Z,15.97
2023-03-30T16:04:51.070Z,15.77
2023-03-30T16:07:20.595Z,15.72
2023-03-30T16:09:48.861Z,15.23
2023-03-30T16:12:25.130Z,15.83
2023-03-30T16:14:53.425Z,15.93
2023-03-30T16:17:21.218Z,15.12
2023-03-30T16:19:48.576Z,14.54
2023-03-30T16:22:16.351Z,14.33
2023-03-30T16:24:46.643Z,14.49
2023-03-30T16:27:14.113Z,15.11
2023-03-30T16:29:42.679Z,15.83
2023-03-30T16:32:10.557Z,16.89
2023-03-30T16:34:37.879Z,17.33
2023-03-30T16:37:05.725Z,17.44
2023-03-30T16:39:33.149Z,17.00
2023-03-30T16:42:00.557Z,16.97
2023-03-30T16:44:28.030Z,17.31
2023-03-30T16:46:55.588Z,17.62
2023-03-30T16:49:25.195Z,15.88
2023-03-30T16:51:55.306Z,16.31
2023-03-30T16:54:31.539Z,17.17
2023-03-30T16:57:01.782Z,16.65
2023-03-30T16:59:30.965Z,16.47
2023-03-30T17:02:00.024Z,16.39
2023-03-30T17:04:28.143Z,16.81
2023-03-30T17:06:55.739Z,16.41
2023-03-30T17:09:23.273Z,15.34
2023-03-30T17:11:50.988Z,15.03
2023-03-30T17:14:22.062Z,15.49
2023-03-30T17:16:49.645Z,15.33
2023-03-30T17:19:17.210Z,14.86
2023-03-30T17:21:44.590Z,14.52
2023-03-30T17:24:11.872Z,14.07
2023-03-30T17:26:39.654Z,14.12
2023-03-30T17:29:06.957Z,13.94
2023-03-30T17:31:41.709Z,13.60
2023-03-30T17:34:09.048Z,13.43
2023-03-30T17:36:36.651Z,13.46
2023-03-30T17:39:05.345Z,13.34
2023-03-30T17:41:34.121Z,13.24
2023-03-30T17:44:01.682Z,13.25
2023-03-30T17:46:29.194Z,13.16
2023-03-30T17:48:56.574Z,13.39
2023-03-30T17:51:24.309Z,13.20
2023-03-30T17:53:51.628Z,13.13
2023-03-30T17:56:19.399Z,13.07
2023-03-30T17:58:46.815Z,13.28
2023-03-30T18:01:14.187Z,13.18
2023-03-30T18:03:41.558Z,13.18
2023-03-30T18:06:11.392Z,12.98
2023-03-30T18:08:39.222Z,13.16
2023-03-30T18:11:06.718Z,13.15
2023-03-30T18:13:34.507Z,13.16
2023-03-30T18:16:01.895Z,13.02
2023-03-30T18:18:30.711Z,13.00
2023-03-30T18:21:03.330Z,13.00
2023-03-30T18:23:32.606Z,13.03
2023-03-30T18:26:00.868Z,13.04
2023-03-30T18:28:29.240Z,12.98
2023-03-30T18:30:57.602Z,13.02
2023-03-30T18:33:25.732Z,12.92
2023-03-30T18:35:53.889Z,12.97
2023-03-30T18:38:22.561Z,12.91
2023-03-30T18:40:52.026Z,13.20
2023-03-30T18:43:21.835Z,13.11
2023-03-30T18:45:50.173Z,13.03
2023-03-30T18:48:20.700Z,12.89
2023-03-30T18:51:05.548Z,13.08
2023-03-30T18:53:50.977Z,12.99
2023-03-30T18:56:37.979Z,12.80
2023-03-30T18:59:26.129Z,12.92
2023-03-30T19:02:11.496Z,13.65
2023-03-30T19:04:56.485Z,13.23
2023-03-30T19:07:41.672Z,13.10
2023-03-30T19:10:29.892Z,12.81
2023-03-30T19:13:18.962Z,12.74
2023-03-30T19:16:04.526Z,12.58
2023-03-30T19:18:49.815Z,12.43
2023-03-30T19:21:40.094Z,12.46
2023-03-30T19:24:25.346Z,12.48
2023-03-30T19:27:10.529Z,12.39
2023-03-30T19:29:55.538Z,12.34
2023-03-30T19:32:42.092Z,12.34
2023-03-30T19:35:28.256Z,12.28
2023-03-30T19:38:15.127Z,12.06
2023-03-30T19:41:01.313Z,12.06
2023-03-30T19:43:46.799Z,12.08
2023-03-30T19:46:32.065Z,12.08
2023-03-30T19:49:17.461Z,12.17
2023-03-30T19:52:02.762Z,11.78
2023-03-30T19:54:48.346Z,11.67
2023-03-30T19:57:33.757Z,11.57
2023-03-30T20:00:19.559Z,11.50
2023-03-30T20:03:04.973Z,11.50
2023-03-30T20:05:50.821Z,11.61
2023-03-30T20:08:36.554Z,11.60
2023-03-30T20:11:22.020Z,11.64
2023-03-30T20:14:07.204Z,11.55
2023-03-30T20:16:52.885Z,11.32
2023-03-30T20:19:37.920Z,11.32
2023-03-30T20:22:24.559Z,11.40
2023-03-30T20:25:13.010Z,11.31
2023-03-30T20:28:04.898Z,11.28
2023-03-30T20:30:56.574Z,11.01
2023-03-30T20:33:48.840Z,10.94
2023-03-30T20:36:40.385Z,10.94
2023-03-30T20:39:32.711Z,10.86
2023-03-30T20:42:24.609Z,10.81
2023-03-30T20:45:17.274Z,10.70
2023-03-30T20:48:08.945Z,10.71
2023-03-30T20:51:01.711Z,10.56
2023-03-30T20:53:54.001Z,10.62
2023-03-30T20:56:45.905Z,10.73
2023-03-30T20:59:38.016Z,10.57
2023-03-30T21:02:31.573Z,10.35
2023-03-30T21:05:23.582Z,10.40
2023-03-30T21:08:15.606Z,10.52
2023-03-30T21:11:08.285Z,10.27
2023-03-30T21:14:01.334Z,10.41
2023-03-30T21:16:54.096Z,10.27
2023-03-30T21:19:45.579Z,10.26
2023-03-30T21:22:37.671Z,10.14
2023-03-30T21:25:29.707Z,10.29
2023-03-30T21:28:21.364Z,10.23
2023-03-30T21:31:13.901Z,10.38
2023-03-30T21:34:05.293Z,10.46
2023-03-30T21:36:57.051Z,10.45
2023-03-30T21:39:48.548Z,10.60
2023-03-30T21:42:40.714Z,10.67
2023-03-30T21:45:32.875Z,10.69
2023-03-30T21:48:27.633Z,10.89
2023-03-30T21:51:23.877Z,10.78
2023-03-30T21:54:16.148Z,10.69
2023-03-30T21:57:07.833Z,10.91
2023-03-30T21:59:59.729Z,10.73
2023-03-30T22:02:51.638Z,10.82
2023-03-30T22:05:45.345Z,11.01
2023-03-30T22:08:38.239Z,10.77
2023-03-30T22:11:29.715Z,10.87
2023-03-30T22:14:05.228Z,10.87
2023-03-30T22:16:32.860Z,10.93
2023-03-30T22:19:01.274Z,10.88
2023-03-30T22:21:29.420Z,10.91
2023-03-30T22:23:56.764Z,10.88
2023-03-30T22:26:24.456Z,10.92
2023-03-30T22:28:51.808Z,10.90
2023-03-30T22:31:19.639Z,10.75
2023-03-30T22:33:47.082Z,10.56
2023-03-30T22:36:22.459Z,10.70
2023-03-30T22:38:51.664Z,10.68
2023-03-30T22:41:19.808Z,10.58
2023-03-30T22:43:47.122Z,10.71
2023-03-30T22:46:14.472Z,10.61
2023-03-30T22:48:42.496Z,10.69
2023-03-30T22:51:09.894Z,10.79
2023-03-30T22:53:38.127Z,10.75
2023-03-30T22:56:06.362Z,10.84
2023-03-30T22:58:35.227Z,10.77
2023-03-30T23:01:04.442Z,10.78
2023-03-30T23:03:31.828Z,10.81
2023-03-30T23:05:59.080Z,10.90
2023-03-30T23:08:27.504Z,10.82
2023-03-30T23:10:55.406Z,10.70
2023-03-30T23:13:23.794Z,10.65
2023-03-30T23:15:51.402Z,10.66
2023-03-30T23:18:18.732Z,10.58
2023-03-30T23:20:46.186Z,10.70
2023-03-30T23:23:15.077Z,10.63
2023-03-30T23:25:50.078Z,10.53
2023-03-30T23:28:18.650Z,10.41
2023-03-30T23:30:46.393Z,10.38
2023-03-30T23:33:14.163Z,10.39
2023-03-30T23:35:48.396Z,10.34
2023-03-30T23:38:15.747Z,10.24
2023-03-30T23:40:43.638Z,10.15
2023-03-30T23:43:11.031Z,10.18
2023-03-30T23:45:38.445Z,10.10
2023-03-30T23:48:06.112Z,10.12
2023-03-30T23:50:36.438Z,10.20
2023-03-30T23:53:04.823Z,10.19
2023-03-30T23:55:32.141Z,10.22
2023-03-30T23:58:00.755Z,10.03
